createdAt,value
2018-08-27T00:00:42.165Z,15.51
2018-08-27T00:03:17.718Z,15.42
2018-08-27T00:05:44.699Z,15.30
2018-08-27T00:08:12.671Z,15.33
2018-08-27T00:10:40.124Z,15.25
2018-08-27T00:13:07.607Z,15.18
2018-08-27T00:15:35.588Z,15.14
2018-08-27T00:18:09.436Z,15.09
2018-08-27T00:20:40.158Z,15.02
2018-08-27T00:23:07.121Z,15.08
2018-08-27T00:25:34.112Z,15.09
2018-08-27T00:28:01.024Z,14.98
2018-08-27T00:30:27.967Z,15.19
2018-08-27T00:32:58.637Z,15.84
2018-08-27T00:35:25.580Z,15.41
2018-08-27T00:37:52.659Z,15.44
2018-08-27T00:40:19.603Z,15.34
2018-08-27T00:42:46.572Z,15.41
2018-08-27T00:45:13.594Z,15.44
2018-08-27T00:47:40.594Z,15.44
2018-08-27T00:50:08.561Z,15.59
2018-08-27T00:52:35.496Z,15.32
2018-08-27T00:55:02.512Z,15.60
2018-08-27T00:57:29.423Z,15.74
2018-08-27T01:00:02.499Z,15.95
2018-08-27T01:02:29.475Z,15.97
2018-08-27T01:04:58.153Z,15.96
2018-08-27T01:07:32.914Z,15.93
2018-08-27T01:10:00.700Z,16.11
2018-08-27T01:12:28.698Z,15.98
2018-08-27T01:14:55.811Z,16.03
2018-08-27T01:17:22.796Z,16.06
2018-08-27T01:19:55.083Z,16.07
2018-08-27T01:22:22.667Z,16.09
2018-08-27T01:24:49.777Z,16.10
2018-08-27T01:27:17.693Z,16.12
2018-08-27T01:29:44.676Z,16.23
2018-08-27T01:32:17.481Z,16.19
2018-08-27T01:34:44.410Z,16.34
2018-08-27T01:37:12.407Z,16.17
2018-08-27T01:39:39.361Z,16.17
2018-08-27T01:42:07.251Z,16.23
2018-08-27T01:44:34.251Z,16.14
2018-08-27T01:47:01.268Z,16.08
2018-08-27T01:49:28.232Z,16.03
2018-08-27T01:51:56.195Z,16.25
2018-08-27T01:54:23.755Z,16.23
2018-08-27T01:56:50.730Z,16.01
2018-08-27T01:59:17.640Z,15.96
2018-08-27T02:01:47.651Z,16.16
2018-08-27T02:04:16.226Z,16.30
2018-08-27T02:06:49.287Z,16.07
2018-08-27T02:09:16.267Z,16.19
2018-08-27T02:11:44.267Z,16.12
2018-08-27T02:14:11.215Z,16.22
2018-08-27T02:16:39.187Z,16.24
2018-08-27T02:19:06.169Z,16.20
2018-08-27T02:21:33.719Z,16.24
2018-08-27T02:24:00.700Z,16.12
2018-08-27T02:26:27.640Z,16.11
2018-08-27T02:28:55.639Z,15.80
2018-08-27T02:31:22.561Z,15.94
2018-08-27T02:33:49.623Z,16.01
2018-08-27T02:36:17.641Z,15.91
2018-08-27T02:38:45.279Z,16.03
2018-08-27T02:41:12.264Z,15.87
2018-08-27T02:43:39.180Z,15.81
2018-08-27T02:46:09.362Z,15.69
2018-08-27T02:48:36.293Z,15.81
2018-08-27T02:51:03.255Z,15.64
2018-08-27T02:53:33.700Z,15.83
2018-08-27T02:56:01.272Z,15.76
2018-08-27T02:58:28.219Z,15.88
2018-08-27T03:00:57.236Z,15.82
2018-08-27T03:03:24.192Z,15.80
2018-08-27T03:05:51.277Z,15.83
2018-08-27T03:08:18.299Z,15.71
2018-08-27T03:10:55.028Z,15.59
2018-08-27T03:13:24.095Z,15.87
2018-08-27T03:15:54.701Z,15.82
2018-08-27T03:18:21.743Z,15.90
2018-08-27T03:20:48.660Z,16.04
2018-08-27T03:23:15.615Z,16.00
2018-08-27T03:25:42.704Z,15.95
2018-08-27T03:28:09.607Z,15.89
2018-08-27T03:30:37.893Z,15.74
2018-08-27T03:33:04.892Z,15.91
2018-08-27T03:35:31.820Z,16.02
2018-08-27T03:37:58.924Z,15.92
2018-08-27T03:40:25.870Z,15.85
2018-08-27T03:42:52.792Z,15.99
2018-08-27T03:45:20.787Z,15.92
2018-08-27T03:47:49.295Z,15.95
2018-08-27T03:50:17.796Z,16.08
2018-08-27T03:52:44.768Z,15.86
2018-08-27T03:55:11.784Z,16.00
2018-08-27T03:57:38.764Z,15.83
2018-08-27T04:00:05.687Z,15.74
2018-08-27T04:02:32.675Z,15.97
2018-08-27T04:05:05.883Z,15.70
2018-08-27T04:07:35.900Z,15.83
2018-08-27T04:10:06.956Z,15.85
2018-08-27T04:12:36.963Z,15.73
2018-08-27T04:15:04.973Z,15.81
2018-08-27T04:17:32.815Z,15.90
2018-08-27T04:20:01.867Z,15.94
2018-08-27T04:22:29.844Z,15.88
2018-08-27T04:24:58.192Z,15.96
2018-08-27T04:27:32.540Z,15.92
2018-08-27T04:29:59.731Z,15.85
2018-08-27T04:32:26.677Z,15.90
2018-08-27T04:34:57.398Z,16.00
2018-08-27T04:37:27.352Z,16.06
2018-08-27T04:39:54.303Z,15.93
2018-08-27T04:42:24.348Z,15.96
2018-08-27T04:45:01.318Z,15.98
2018-08-27T04:47:29.325Z,16.21
2018-08-27T04:49:56.784Z,16.22
2018-08-27T04:52:24.348Z,16.16
2018-08-27T04:54:51.367Z,15.96
2018-08-27T04:57:18.378Z,16.06
2018-08-27T04:59:51.745Z,16.00
2018-08-27T05:02:19.354Z,15.87
2018-08-27T05:04:46.335Z,15.85
2018-08-27T05:07:26.851Z,16.00
2018-08-27T05:09:58.455Z,16.14
2018-08-27T05:12:29.512Z,16.17
2018-08-27T05:14:57.548Z,16.00
2018-08-27T05:17:25.080Z,16.13
2018-08-27T05:19:52.012Z,16.03
2018-08-27T05:22:19.888Z,16.12
2018-08-27T05:24:55.537Z,16.17
2018-08-27T05:27:25.452Z,16.28
2018-08-27T05:29:52.436Z,16.33
2018-08-27T05:32:19.403Z,16.68
2018-08-27T05:34:56.080Z,16.41
2018-08-27T05:37:25.920Z,16.50
2018-08-27T05:39:52.828Z,16.62
2018-08-27T05:42:22.780Z,16.97
2018-08-27T05:44:49.738Z,16.80
2018-08-27T05:47:17.729Z,16.47
2018-08-27T05:49:44.760Z,16.53
2018-08-27T05:52:20.499Z,16.59
2018-08-27T05:54:52.420Z,16.48
2018-08-27T05:57:22.444Z,16.62
2018-08-27T05:59:54.322Z,16.64
2018-08-27T06:02:21.863Z,16.67
2018-08-27T06:04:49.384Z,16.73
2018-08-27T06:07:16.328Z,16.70
2018-08-27T06:09:43.371Z,16.75
2018-08-27T06:12:10.212Z,16.64
2018-08-27T06:14:37.200Z,16.55
2018-08-27T06:17:07.226Z,16.48
2018-08-27T06:19:34.152Z,16.27
2018-08-27T06:22:01.261Z,16.30
2018-08-27T06:24:28.163Z,16.29
2018-08-27T06:26:55.156Z,16.33
2018-08-27T06:29:22.129Z,16.36
2018-08-27T06:31:49.024Z,16.30
2018-08-27T06:34:17.887Z,16.17
2018-08-27T06:36:44.835Z,16.20
2018-08-27T06:39:13.844Z,16.36
2018-08-27T06:41:41.291Z,16.47
2018-08-27T06:44:08.894Z,16.33
2018-08-27T06:46:35.841Z,16.43
2018-08-27T06:49:02.780Z,16.89
2018-08-27T06:51:29.776Z,17.19
2018-08-27T06:53:57.727Z,17.44
2018-08-27T06:56:24.706Z,17.38
2018-08-27T06:58:51.653Z,17.44
2018-08-27T07:01:18.606Z,17.57
2018-08-27T07:03:48.312Z,17.79
2018-08-27T07:06:15.280Z,17.84
2018-08-27T07:08:48.449Z,17.65
2018-08-27T07:11:15.346Z,17.61
2018-08-27T07:13:42.252Z,17.45
2018-08-27T07:16:09.879Z,17.31
2018-08-27T07:18:37.872Z,17.17
2018-08-27T07:21:05.385Z,17.74
2018-08-27T07:23:32.387Z,18.10
2018-08-27T07:25:59.353Z,17.75
2018-08-27T07:28:26.540Z,17.86
2018-08-27T07:30:54.365Z,17.24
2018-08-27T07:33:21.319Z,17.35
2018-08-27T07:35:48.307Z,17.24
2018-08-27T07:38:15.279Z,17.32
2018-08-27T07:40:42.171Z,17.78
2018-08-27T07:43:10.915Z,17.88
2018-08-27T07:45:37.917Z,17.80
2018-08-27T07:48:04.841Z,17.76
2018-08-27T07:50:31.924Z,17.66
2018-08-27T07:52:58.849Z,17.61
2018-08-27T07:55:26.423Z,17.64
2018-08-27T07:57:53.376Z,17.90
2018-08-27T08:00:22.243Z,17.78
2018-08-27T08:02:49.820Z,17.89
2018-08-27T08:05:17.695Z,17.96
2018-08-27T08:07:48.035Z,18.06
2018-08-27T08:10:18.981Z,17.96
2018-08-27T08:12:54.884Z,17.96
2018-08-27T08:15:21.811Z,18.11
2018-08-27T08:17:49.695Z,17.93
2018-08-27T08:20:21.304Z,17.87
2018-08-27T08:22:48.284Z,18.01
2018-08-27T08:25:15.212Z,18.16
2018-08-27T08:27:42.280Z,18.41
2018-08-27T08:30:09.231Z,18.94
2018-08-27T08:32:43.654Z,19.16
2018-08-27T08:35:10.612Z,19.55
2018-08-27T08:37:37.573Z,19.86
2018-08-27T08:40:04.739Z,20.19
2018-08-27T08:42:31.702Z,19.34
2018-08-27T08:44:58.629Z,19.47
2018-08-27T08:47:25.592Z,19.29
2018-08-27T08:49:52.583Z,19.13
2018-08-27T08:52:19.520Z,19.25
2018-08-27T08:54:46.512Z,18.72
2018-08-27T08:57:19.512Z,18.94
2018-08-27T08:59:50.429Z,18.67
2018-08-27T09:02:23.937Z,18.31
2018-08-27T09:04:50.887Z,17.84
2018-08-27T09:07:17.839Z,17.84
2018-08-27T09:09:52.168Z,17.62
2018-08-27T09:12:23.988Z,17.85
2018-08-27T09:14:50.928Z,17.48
2018-08-27T09:17:17.942Z,17.35
2018-08-27T09:19:46.856Z,17.24
2018-08-27T09:22:13.867Z,17.02
2018-08-27T09:24:40.878Z,17.11
2018-08-27T09:27:08.452Z,16.91
2018-08-27T09:29:35.421Z,17.20
2018-08-27T09:32:02.361Z,17.42
2018-08-27T09:34:30.955Z,17.91
2018-08-27T09:36:57.960Z,17.94
2018-08-27T09:39:25.917Z,18.28
2018-08-27T09:41:52.886Z,18.32
2018-08-27T09:44:19.828Z,18.24
2018-08-27T09:46:46.853Z,18.20
2018-08-27T09:49:17.571Z,18.75
2018-08-27T09:51:44.599Z,19.04
2018-08-27T09:54:14.511Z,19.19
2018-08-27T09:56:41.578Z,18.85
2018-08-27T09:59:08.591Z,18.98
2018-08-27T10:01:37.412Z,19.60
2018-08-27T10:04:04.996Z,19.50
2018-08-27T10:06:32.667Z,19.62
2018-08-27T10:09:00.666Z,19.64
2018-08-27T10:11:27.608Z,19.74
2018-08-27T10:13:54.660Z,20.24
2018-08-27T10:16:21.644Z,20.12
2018-08-27T10:18:48.603Z,19.89
2018-08-27T10:21:16.479Z,20.20
2018-08-27T10:23:44.459Z,20.03
2018-08-27T10:26:14.343Z,20.21
2018-08-27T10:28:42.048Z,20.25
2018-08-27T10:31:09.156Z,20.23
2018-08-27T10:33:37.092Z,20.75
2018-08-27T10:36:04.075Z,20.85
2018-08-27T10:38:30.982Z,20.48
2018-08-27T10:41:04.243Z,20.00
2018-08-27T10:43:31.489Z,19.76
2018-08-27T10:45:58.427Z,20.07
2018-08-27T10:48:25.368Z,20.13
2018-08-27T10:50:52.408Z,20.25
2018-08-27T10:53:20.020Z,19.69
2018-08-27T10:55:46.999Z,19.84
2018-08-27T10:58:13.927Z,19.92
2018-08-27T11:00:41.540Z,19.70
2018-08-27T11:03:08.473Z,19.49
2018-08-27T11:05:36.028Z,19.66
2018-08-27T11:08:03.014Z,19.72
2018-08-27T11:10:29.916Z,19.79
2018-08-27T11:12:56.922Z,20.17
2018-08-27T11:15:23.882Z,20.76
2018-08-27T11:17:50.786Z,20.58
2018-08-27T11:20:17.795Z,20.86
2018-08-27T11:22:47.703Z,21.14
2018-08-27T11:25:17.839Z,20.85
2018-08-27T11:27:50.940Z,20.93
2018-08-27T11:30:17.899Z,20.78
2018-08-27T11:32:45.587Z,20.91
2018-08-27T11:35:12.524Z,20.90
2018-08-27T11:37:40.512Z,21.51
2018-08-27T11:40:09.600Z,21.52
2018-08-27T11:42:40.767Z,21.19
2018-08-27T11:45:08.767Z,21.03
2018-08-27T11:47:37.142Z,21.25
2018-08-27T11:50:05.313Z,21.52
2018-08-27T11:52:34.244Z,21.87
2018-08-27T11:55:02.264Z,21.60
2018-08-27T11:57:29.275Z,21.96
2018-08-27T12:00:00.271Z,22.10
2018-08-27T12:02:27.399Z,21.47
2018-08-27T12:04:55.387Z,20.85
2018-08-27T12:07:22.323Z,20.75
2018-08-27T12:09:49.272Z,20.97
2018-08-27T12:12:16.240Z,20.97
2018-08-27T12:14:44.020Z,20.73
2018-08-27T12:17:11.002Z,20.80
2018-08-27T12:19:37.959Z,20.72
2018-08-27T12:24:46.186Z,20.75
2018-08-27T12:27:13.148Z,20.85
2018-08-27T12:29:40.095Z,21.01
2018-08-27T12:32:07.056Z,21.07
2018-08-27T12:34:34.026Z,20.88
2018-08-27T12:37:00.999Z,21.04
2018-08-27T12:39:28.909Z,21.20
2018-08-27T12:41:55.911Z,21.10
2018-08-27T12:44:22.876Z,20.61
2018-08-27T12:46:50.848Z,20.61
2018-08-27T12:49:17.868Z,20.84
2018-08-27T12:51:45.177Z,20.98
2018-08-27T12:54:12.179Z,20.87
2018-08-27T12:56:40.534Z,21.15
2018-08-27T12:59:07.709Z,21.02
2018-08-27T13:01:34.789Z,21.09
2018-08-27T13:04:01.817Z,21.13
2018-08-27T13:06:28.803Z,21.00
2018-08-27T13:08:55.731Z,21.00
2018-08-27T13:11:26.236Z,20.84
2018-08-27T13:13:57.250Z,20.89
2018-08-27T13:16:24.175Z,21.13
2018-08-27T13:18:52.057Z,21.11
2018-08-27T13:21:24.585Z,21.16
2018-08-27T13:23:51.584Z,20.97
2018-08-27T13:26:18.622Z,21.38
2018-08-27T13:28:45.660Z,21.77
2018-08-27T13:31:12.577Z,21.54
2018-08-27T13:33:39.828Z,21.50
2018-08-27T13:36:06.807Z,21.19
2018-08-27T13:38:33.919Z,21.47
2018-08-27T13:41:00.876Z,21.32
2018-08-27T13:43:27.881Z,21.17
2018-08-27T13:45:54.884Z,21.48
2018-08-27T13:48:21.855Z,21.64
2018-08-27T13:50:48.871Z,22.13
2018-08-27T13:53:15.849Z,22.51
2018-08-27T13:55:43.836Z,22.68
2018-08-27T13:58:10.779Z,22.51
2018-08-27T14:00:41.803Z,21.96
2018-08-27T14:03:08.912Z,21.57
2018-08-27T14:05:35.941Z,21.61
2018-08-27T14:08:03.707Z,21.80
2018-08-27T14:10:32.680Z,21.79
2018-08-27T14:13:00.640Z,21.63
2018-08-27T14:15:29.645Z,21.66
2018-08-27T14:17:56.556Z,21.68
2018-08-27T14:20:23.503Z,21.90
2018-08-27T14:22:50.467Z,21.87
2018-08-27T14:25:17.532Z,22.04
2018-08-27T14:27:45.817Z,21.82
2018-08-27T14:30:13.695Z,21.79
2018-08-27T14:32:40.766Z,21.63
2018-08-27T14:35:09.715Z,21.68
2018-08-27T14:37:36.732Z,21.70
2018-08-27T14:40:03.903Z,21.70
2018-08-27T14:42:33.263Z,21.59
2018-08-27T14:45:00.397Z,21.50
2018-08-27T14:47:27.365Z,21.59
2018-08-27T14:49:54.474Z,21.78
2018-08-27T14:52:21.428Z,21.88
2018-08-27T14:54:48.379Z,21.86
2018-08-27T14:57:15.380Z,21.97
2018-08-27T14:59:42.305Z,21.82
2018-08-27T15:02:09.258Z,21.87
2018-08-27T15:04:36.224Z,22.07
2018-08-27T15:07:03.191Z,21.82
2018-08-27T15:09:30.193Z,21.88
2018-08-27T15:11:57.079Z,21.88
2018-08-27T15:14:24.047Z,21.78
2018-08-27T15:16:51.042Z,21.70
2018-08-27T15:19:17.948Z,21.76
2018-08-27T15:21:44.935Z,21.74
2018-08-27T15:24:11.876Z,21.79
2018-08-27T15:26:38.836Z,21.75
2018-08-27T15:29:05.899Z,21.86
2018-08-27T15:31:32.869Z,21.92
2018-08-27T15:33:59.818Z,22.04
2018-08-27T15:36:26.776Z,22.00
2018-08-27T15:38:53.801Z,22.21
2018-08-27T15:41:20.701Z,22.20
2018-08-27T15:43:47.657Z,22.08
2018-08-27T15:46:20.356Z,21.96
2018-08-27T15:48:47.363Z,22.08
2018-08-27T15:51:14.275Z,22.21
2018-08-27T15:53:42.248Z,22.42
2018-08-27T15:56:09.210Z,22.37
2018-08-27T15:58:36.151Z,22.27
2018-08-27T16:01:03.117Z,22.55
2018-08-27T16:03:30.066Z,22.38
2018-08-27T16:05:57.180Z,22.19
2018-08-27T16:08:24.011Z,22.63
2018-08-27T16:10:50.945Z,22.47
2018-08-27T16:13:18.925Z,22.54
2018-08-27T16:15:47.667Z,22.39
2018-08-27T16:18:15.201Z,22.53
2018-08-27T16:20:42.192Z,22.63
2018-08-27T16:23:09.291Z,22.94
2018-08-27T16:25:36.164Z,22.66
2018-08-27T16:28:03.104Z,22.59
2018-08-27T16:30:30.071Z,22.55
2018-08-27T16:32:57.035Z,22.28
2018-08-27T16:35:24.320Z,22.43
2018-08-27T16:37:53.183Z,22.04
2018-08-27T16:40:20.359Z,22.00
2018-08-27T16:42:47.314Z,22.12
2018-08-27T16:45:14.343Z,22.05
2018-08-27T16:47:43.395Z,22.16
2018-08-27T16:50:15.245Z,22.36
2018-08-27T16:52:42.281Z,22.29
2018-08-27T16:55:12.664Z,22.34
2018-08-27T16:57:41.255Z,22.70
2018-08-27T17:00:09.672Z,22.66
2018-08-27T17:02:36.624Z,22.81
2018-08-27T17:05:03.559Z,22.76
2018-08-27T17:07:30.487Z,22.70
2018-08-27T17:09:59.263Z,22.75
2018-08-27T17:12:26.181Z,22.63
2018-08-27T17:14:53.137Z,22.57
2018-08-27T17:17:20.093Z,22.61
2018-08-27T17:19:48.105Z,22.83
2018-08-27T17:22:15.011Z,22.69
2018-08-27T17:24:42.825Z,22.41
2018-08-27T17:27:09.770Z,22.25
2018-08-27T17:29:36.809Z,22.31
2018-08-27T17:32:03.783Z,22.55
2018-08-27T17:34:30.884Z,22.30
2018-08-27T17:36:58.598Z,22.40
2018-08-27T17:39:25.899Z,22.33
2018-08-27T17:41:52.926Z,22.15
2018-08-27T17:44:19.960Z,22.35
2018-08-27T17:46:46.962Z,22.16
2018-08-27T17:49:13.960Z,22.35
2018-08-27T17:51:40.967Z,22.35
2018-08-27T17:54:07.914Z,22.29
2018-08-27T17:56:34.852Z,22.13
2018-08-27T17:59:01.735Z,21.92
2018-08-27T18:01:28.711Z,21.91
2018-08-27T18:03:55.618Z,21.82
2018-08-27T18:06:25.587Z,21.69
2018-08-27T18:08:52.531Z,21.77
2018-08-27T18:11:19.511Z,21.90
2018-08-27T18:13:46.423Z,21.90
2018-08-27T18:16:14.425Z,21.97
2018-08-27T18:18:41.403Z,21.92
2018-08-27T18:21:08.351Z,21.88
2018-08-27T18:23:35.395Z,22.02
2018-08-27T18:26:02.347Z,21.87
2018-08-27T18:28:30.451Z,21.78
2018-08-27T18:30:57.431Z,21.54
2018-08-27T18:33:28.529Z,21.25
2018-08-27T18:35:56.365Z,21.07
2018-08-27T18:38:24.309Z,21.03
2018-08-27T18:40:51.319Z,20.92
2018-08-27T18:43:18.375Z,20.91
2018-08-27T18:45:45.292Z,20.82
2018-08-27T18:48:12.760Z,20.77
2018-08-27T18:50:39.696Z,20.71
2018-08-27T18:53:06.716Z,20.64
2018-08-27T18:55:33.677Z,20.58
2018-08-27T18:58:00.648Z,20.70
2018-08-27T19:00:27.668Z,20.79
2018-08-27T19:02:54.634Z,20.73
2018-08-27T19:05:21.633Z,21.37
2018-08-27T19:07:48.535Z,20.67
2018-08-27T19:10:15.505Z,20.54
2018-08-27T19:12:42.466Z,20.40
2018-08-27T19:15:09.417Z,20.28
2018-08-27T19:17:36.366Z,20.16
2018-08-27T19:20:03.367Z,20.23
2018-08-27T19:22:30.407Z,19.97
2018-08-27T19:24:57.312Z,19.78
2018-08-27T19:27:24.776Z,19.84
2018-08-27T19:29:52.552Z,19.75
2018-08-27T19:32:19.560Z,19.69
2018-08-27T19:34:46.645Z,19.80
2018-08-27T19:37:14.651Z,19.83
2018-08-27T19:39:42.343Z,19.83
2018-08-27T19:42:09.491Z,19.77
2018-08-27T19:44:36.436Z,19.90
2018-08-27T19:47:03.447Z,19.88
2018-08-27T19:49:30.383Z,19.72
2018-08-27T19:51:58.304Z,19.80
2018-08-27T19:54:25.191Z,19.87
2018-08-27T19:56:52.176Z,19.76
2018-08-27T19:59:19.131Z,20.01
2018-08-27T20:01:46.091Z,20.06
2018-08-27T20:04:13.110Z,20.22
2018-08-27T20:06:45.911Z,20.31
2018-08-27T20:09:14.863Z,20.27
2018-08-27T20:11:47.983Z,20.38
2018-08-27T20:14:14.916Z,20.38
2018-08-27T20:16:42.047Z,20.60
2018-08-27T20:19:08.832Z,20.59
2018-08-27T20:21:35.830Z,20.74
2018-08-27T20:24:06.660Z,20.70
2018-08-27T20:26:39.615Z,20.70
2018-08-27T20:29:12.669Z,20.67
2018-08-27T20:31:40.976Z,20.38
2018-08-27T20:34:08.900Z,20.38
2018-08-27T20:36:35.963Z,19.81
2018-08-27T20:39:03.018Z,20.02
2018-08-27T20:41:35.121Z,19.86
2018-08-27T20:44:06.251Z,19.67
2018-08-27T20:46:33.212Z,19.52
2018-08-27T20:49:00.288Z,19.69
2018-08-27T20:51:27.238Z,19.73
2018-08-27T20:53:54.187Z,19.68
2018-08-27T20:56:21.155Z,19.80
2018-08-27T20:58:48.099Z,19.97
2018-08-27T21:01:15.071Z,20.00
2018-08-27T21:03:43.054Z,20.20
2018-08-27T21:06:11.024Z,20.22
2018-08-27T21:08:37.990Z,20.21
2018-08-27T21:11:05.055Z,20.28
2018-08-27T21:13:32.067Z,20.35
2018-08-27T21:15:59.078Z,20.31
2018-08-27T21:18:26.040Z,20.42
2018-08-27T21:20:54.935Z,20.39
2018-08-27T21:23:22.398Z,20.38
2018-08-27T21:25:49.484Z,20.35
2018-08-27T21:28:16.392Z,20.27
2018-08-27T21:30:44.915Z,20.23
2018-08-27T21:33:17.901Z,20.19
2018-08-27T21:35:44.978Z,20.11
2018-08-27T21:38:11.914Z,20.17
2018-08-27T21:40:38.889Z,19.92
2018-08-27T21:43:11.943Z,19.78
2018-08-27T21:45:39.996Z,19.82
2018-08-27T21:48:07.935Z,19.76
2018-08-27T21:50:34.996Z,20.07
2018-08-27T21:53:01.992Z,20.15
2018-08-27T21:55:28.924Z,19.97
2018-08-27T21:57:56.375Z,20.03
2018-08-27T22:00:27.241Z,19.83
2018-08-27T22:03:02.059Z,19.42
2018-08-27T22:05:29.954Z,19.67
2018-08-27T22:07:57.926Z,19.27
2018-08-27T22:10:40.563Z,19.24
2018-08-27T22:13:07.544Z,19.08
2018-08-27T22:15:34.495Z,19.15
2018-08-27T22:18:09.931Z,19.23
2018-08-27T22:20:43.148Z,18.93
2018-08-27T22:23:10.130Z,18.77
2018-08-27T22:25:37.448Z,18.52
2018-08-27T22:28:04.395Z,18.33
2018-08-27T22:30:31.386Z,18.53
2018-08-27T22:32:59.384Z,18.28
2018-08-27T22:35:29.417Z,18.32
2018-08-27T22:37:56.357Z,18.53
2018-08-27T22:40:32.119Z,18.67
2018-08-27T22:43:05.307Z,18.71
2018-08-27T22:45:33.287Z,18.90
2018-08-27T22:48:06.305Z,19.01
2018-08-27T22:50:33.265Z,18.91
2018-08-27T22:53:00.226Z,18.86
2018-08-27T22:55:27.163Z,18.98
2018-08-27T22:57:54.954Z,18.94
2018-08-27T23:00:26.264Z,18.57
2018-08-27T23:03:00.873Z,18.35
2018-08-27T23:05:27.811Z,18.44
2018-08-27T23:07:54.751Z,18.08
2018-08-27T23:10:22.488Z,17.97
2018-08-27T23:12:49.496Z,17.90
2018-08-27T23:15:24.190Z,17.92
2018-08-27T23:17:51.202Z,17.58
2018-08-27T23:20:19.155Z,17.63
2018-08-27T23:22:46.988Z,17.54
2018-08-27T23:25:25.615Z,17.60
2018-08-27T23:27:53.511Z,17.59
2018-08-27T23:30:21.528Z,17.46
2018-08-27T23:32:48.519Z,17.26
2018-08-27T23:35:15.440Z,17.08
2018-08-27T23:37:42.351Z,17.88
2018-08-27T23:40:09.336Z,17.21
2018-08-27T23:42:37.015Z,17.31
2018-08-27T23:45:04.501Z,17.44
2018-08-27T23:47:32.511Z,17.58
2018-08-27T23:49:59.447Z,17.51
2018-08-27T23:52:26.415Z,17.42
2018-08-27T23:54:53.366Z,16.91
2018-08-27T23:57:20.335Z,17.08
2018-08-27T23:59:47.279Z,16.93
